Sapporo, Japan

11:49 PM JST on October 24, 2014 (GMT +0900)
New Chitose | Change Station
CLOSE
Current Station
Airport
Location: Chitose AB,
Elevation: 98 ft
Nearby Weather Stations

Elev 98 ft 42.77 °N, 141.69 °E | Updated 19 minutes ago

Partly Cloudy
Partly Cloudy
39 °F
Feels Like 37 °F
N
4
Wind Variable Wind from South

Today
High -- | Low -- °F
--% Chance of Precip.
Yesterday
High -- | Low -- °F
Precip. -- in
5:58 AM 4:38 PM
New Moon, 1% visible
Pressure 30.12 in
Visibility 6.2 miles
Clouds Few 5000 ft
Windchill 37 °F
Dew Point 37 °F
Humidity 93%
Rainfall 0.00 in
Snow Depth Not available.
UV 0 out of 12
Pollen Not available.
Air Quality Not available.
Flu Activity Not available.
METAR RJCC 241430Z 18003KT 9999 FEW050 04/03 Q1020 RMK 1SC050 A3013

More Conditions Fewer Conditions

Pressure 30.12 in
Visibility 6.2 miles
Clouds Few 5000 ft
Windchill 37 °F
Dew Point 37 °F
Humidity 93%
Rainfall 0.00 in
Snow Depth Not available.
UV 0 out of 12
Pollen Not available.
Air Quality Not available.
Flu Activity Not available.
METAR RJCC 241430Z 18003KT 9999 FEW050 04/03 Q1020 RMK 1SC050 A3013

More Conditions Fewer Conditions

10-Day Weather Forecast

Almanac

Astronomy

Oct. 24, 2014 Rise Set
Actual Time 5:58 AM JST 4:38 PM JST
Civil Twilight 5:29 AM JST 5:07 PM JST
Nautical Twilight 4:56 AM JST 5:40 PM JST
Astronomical Twilight 4:23 AM JST 6:13 PM JST
Moon 5:59 AM JST 4:53 PM JST
Length of Visible Light 11h 38m
Length of Day
10h 40m
Tomorrow will be 2m 44s shorter.
New Moon, 1% of the Moon is Illuminated
Today
New Moon
Oct 30
First Quarter
Nov 6
Full
Nov 14
Last Quarter
Nov 22
New

Today's Extremes

Country Highs Country Lows

Community

WunderPhotos

Upload Photos

1,764,581 photos uploaded!

Nearby

Snow Depth

Not available.

Earthquake Activity

City Distance Mag. Time & Date
No recent earthquake activity has been reported nearby.
Minimum magnitude displayed is 2.5.

Coastal Water Temperatures

Place Temperature
No Stations Reporting

Nearby Weather Stations